< Typhoon 198707 1987 Season Typhoon 198709 >
Typhoon 198708 (ALEX)
General InformationTrack Information on Google MapsDetailed Wind InformationList of All Images || Disaster Info.ResourceGoogle EarthGE AnimationAtom FeedGeoJSON
Detalied Best Track (Time Zone = UTC)
Year Month Day Hour Lat. Long. Pressure (hPa) Wind (kt) Class Image Chart
1987 7 21 12 8.5 143.0 1008 0 2 Image Chart
1987 7 21 18 8.7 141.7 1006 0 2 Image Chart
1987 7 22 00 8.9 140.4 1008 0 2 Image Chart
1987 7 22 06 9.2 139.2 1008 0 2 Image Chart
1987 7 22 12 9.4 137.9 1006 0 2 Image Chart
1987 7 22 18 9.6 136.6 1004 0 2 Image Chart
1987 7 23 00 9.8 135.1 1002 0 2 Image Chart
1987 7 23 06 10.0 133.5 1000 0 2 Image Chart
1987 7 23 12 10.4 131.9 998 40 3 Image Chart
1987 7 23 18 11.2 130.5 996 45 3 Image Chart
1987 7 24 00 12.4 129.5 994 45 3 Image Chart
1987 7 24 06 14.2 129.2 992 45 3 Image Chart
1987 7 24 12 15.3 127.9 990 45 3 Image Chart
1987 7 24 18 15.8 126.7 985 50 4 Image Chart
1987 7 25 00 16.5 125.9 980 55 4 Image Chart
1987 7 25 06 17.3 125.7 975 60 4 Image Chart
1987 7 25 12 18.6 124.9 970 60 4 Image Chart
1987 7 25 18 19.6 123.9 970 65 5 Image Chart
1987 7 26 00 20.1 122.7 970 65 5 Image Chart
1987 7 26 06 21.2 122.4 970 60 4 Image Chart
1987 7 26 12 22.3 122.4 970 60 4 Image Chart
1987 7 26 18 23.7 122.3 970 65 5 Image Chart
1987 7 27 00 25.4 121.5 975 60 4 Image Chart
1987 7 27 06 26.4 120.9 980 55 4 Image Chart
1987 7 27 12 27.7 120.8 985 50 4 Image Chart
1987 7 27 18 29.3 120.7 990 45 3 Image Chart
1987 7 28 00 30.7 120.6 992 40 3 Image Chart
1987 7 28 06 32.1 120.4 992 40 3 Image Chart
1987 7 28 12 33.6 120.3 992 35 3 Image Chart
1987 7 28 18 34.7 120.7 992 35 3 Image Chart
1987 7 29 00 36.0 121.5 994 0 2 Image Chart
1987 7 29 06 37.0 122.6 994 0 2 Image Chart
1987 7 29 12 37.9 123.1 996 0 2 Image Chart
1987 7 29 18 38.5 124.0 998 0 6 Image Chart
1987 7 30 00 39.0 125.0 998 0 6 Image Chart
1987 7 30 06 39.0 128.0 998 0 6 Image Chart
1987 7 30 12 39.0 131.0 998 0 6 Image Chart
1987 7 30 18 39.5 134.0 998 0 6 Image Chart
1987 7 31 00 40.0 136.0 998 0 6 Image Chart
1987 7 31 06 40.0 137.0 998 0 6 Image Chart
1987 7 31 12 40.0 138.0 1000 0 6 Image Chart
1987 7 31 18 39.6 138.4 1000 0 6 Image Chart
1987 8 1 00 39.2 138.2 1002 0 6 Image Chart
1987 8 1 06 39.2 137.9 1002 0 6 Image Chart
1987 8 1 12 39.1 137.6 1004 0 6 Image Chart
1987 8 1 18 39.1 137.3 1006 0 6 Image Chart
1987 8 2 00 39.0 137.0 1006 0 6 Image Chart
Japan Meteorological Agency Best Track Data | Correction Date : 1992-10-21
< Typhoon 198707 1987 Season Typhoon 198709 >

Help